.
WxDataArchive / Data Records for 2013-05-12
2013-05-11 May 2013 2013-05-13

Data Records for Sunday, 12 May 2013

Time	Temp	Chill	HIndex	Humid	Dewpt	 Wind 	HiWind	WindDir	Rain 	Barom 
-----	----	-----	------	-----	-----	------	------	-------	-----	----- 
00:00	41.5	41.5	41.5	71	32.8	0	1	248	0.00	29.981 
00:05	41.3	41.3	41.3	71	32.6	0	1	248	0.00	29.981 
00:10	41.2	41.2	41.2	71	32.5	0	0	---	0.00	29.981 
00:15	41.1	41.1	41.1	72	32.8	0	0	---	0.00	29.981 
00:20	40.8	40.8	40.8	73	32.8	0	0	---	0.00	29.981 
00:25	40.5	40.5	40.5	73	32.5	0	1	248	0.00	29.981 
00:30	40.3	40.3	40.3	73	32.3	0	0	---	0.00	29.983 
00:35	40.2	40.2	40.2	73	32.2	0	0	---	0.00	29.983 
00:40	40.1	40.1	40.1	74	32.5	0	0	---	0.00	29.983 
00:45	39.8	39.8	39.8	74	32.2	0	0	---	0.00	29.985 
00:50	39.5	39.5	39.5	74	31.9	0	0	---	0.00	29.985 
00:55	39.2	39.2	39.2	75	32.0	0	0	---	0.00	29.985 
01:00	38.9	38.9	38.9	75	31.7	0	0	---	0.00	29.987 
01:05	38.6	38.6	38.6	77	32.0	0	0	---	0.00	29.987 
01:10	38.3	38.3	38.3	78	32.1	0	0	---	0.00	29.987 
01:15	38.2	38.2	38.2	79	32.3	0	0	---	0.00	29.986 
01:20	38.0	38.0	38.0	79	32.1	0	0	---	0.00	29.986 
01:25	37.9	37.9	37.9	80	32.3	0	0	---	0.00	29.986 
01:30	37.9	37.9	37.9	80	32.3	0	0	---	0.00	29.987 
01:35	37.8	37.8	37.8	81	32.5	0	0	---	0.00	29.987 
01:40	37.8	37.8	37.8	81	32.5	0	0	---	0.00	29.987 
01:45	37.8	37.8	37.8	81	32.5	0	0	---	0.00	29.988 
01:50	37.8	37.8	37.8	81	32.5	0	0	---	0.00	29.988 
01:55	37.8	37.8	37.8	81	32.5	0	0	---	0.00	29.988 
02:00	37.8	37.8	37.8	82	32.8	0	0	---	0.00	29.986 
02:05	37.9	37.9	37.9	82	32.9	0	0	---	0.00	29.986 
02:10	37.9	37.9	37.9	82	32.9	0	1	248	0.00	29.986 
02:15	38.0	38.0	38.0	82	33.0	0	0	---	0.00	29.986 
02:20	38.2	38.2	38.2	82	33.2	0	0	---	0.00	29.986 
02:25	38.2	38.2	38.2	82	33.2	0	1	248	0.00	29.986 
02:30	38.3	38.3	38.3	82	33.3	0	0	---	0.00	29.985 
02:35	38.3	38.3	38.3	82	33.3	0	0	---	0.00	29.985 
02:40	38.2	38.2	38.2	82	33.2	0	0	---	0.00	29.985 
02:45	38.2	38.2	38.2	82	33.2	0	0	---	0.00	29.984 
02:50	38.0	38.0	38.0	82	33.0	0	0	---	0.00	29.984 
02:55	38.0	38.0	38.0	82	33.0	0	0	---	0.00	29.984 
03:00	38.0	38.0	38.0	82	33.0	0	0	---	0.00	29.983 
03:05	38.0	38.0	38.0	82	33.0	0	1	248	0.00	29.983 
03:10	38.0	38.0	38.0	82	33.0	0	1	248	0.00	29.983 
03:15	38.0	38.0	38.0	82	33.0	0	0	---	0.00	29.981 
03:20	38.0	38.0	38.0	82	33.0	0	1	248	0.00	29.981 
03:25	38.0	38.0	38.0	83	33.3	0	0	---	0.00	29.981 
03:30	38.0	38.0	38.0	83	33.3	0	1	248	0.00	29.981 
03:35	38.0	38.0	38.0	83	33.3	0	1	248	0.00	29.981 
03:40	38.0	38.0	38.0	83	33.3	0	0	---	0.00	29.981 
03:45	38.0	38.0	38.0	83	33.3	0	1	248	0.00	29.978 
03:50	38.0	38.0	38.0	83	33.3	0	2	248	0.00	29.978 
03:55	38.0	38.0	38.0	83	33.3	0	2	248	0.00	29.978 
04:00	38.0	38.0	38.0	83	33.3	0	2	248	0.00	29.976 
04:05	38.0	38.0	38.0	83	33.3	0	2	248	0.00	29.976 
04:10	38.0	38.0	38.0	82	33.0	0	2	248	0.00	29.976 
04:15	38.2	38.2	38.2	82	33.2	0	2	248	0.00	29.976 
04:20	38.3	38.3	38.3	81	33.0	1	2	248	0.00	29.976 
04:25	38.5	38.5	38.5	81	33.2	1	3	248	0.00	29.976 
04:30	38.5	38.5	38.5	80	32.9	1	3	248	0.00	29.974 
04:35	38.6	38.6	38.6	80	33.0	1	3	248	0.00	29.974 
04:40	38.5	38.5	38.5	79	32.6	0	2	248	0.00	29.974 
04:45	38.5	38.5	38.5	79	32.6	1	3	248	0.00	29.971 
04:50	38.5	38.5	38.5	79	32.6	1	2	248	0.00	29.971 
04:55	38.5	38.5	38.5	79	32.6	1	2	248	0.00	29.971 
05:00	38.5	38.5	38.5	78	32.2	1	2	248	0.00	29.972 
05:05	38.3	38.3	38.3	78	32.1	0	2	248	0.00	29.972 
05:10	38.3	38.3	38.3	78	32.1	1	2	248	0.00	29.972 
05:15	38.3	38.3	38.3	78	32.1	1	2	248	0.00	29.982 
05:20	38.2	38.2	38.2	78	32.0	1	2	248	0.00	29.982 
05:25	38.2	38.2	38.2	78	32.0	1	2	248	0.00	29.982 
05:30	38.0	38.0	38.0	78	31.8	1	2	248	0.00	29.981 
05:35	38.0	38.0	38.0	78	31.8	0	2	248	0.00	29.981 
05:40	37.9	37.9	37.9	77	31.3	0	2	248	0.00	29.981 
05:45	37.9	37.9	37.9	77	31.3	0	1	248	0.00	29.984 
05:50	37.8	37.8	37.8	77	31.2	0	2	248	0.00	29.984 
05:55	37.8	37.8	37.8	77	31.2	0	1	248	0.00	29.984 
06:00	37.6	37.6	37.6	77	31.1	0	2	248	0.00	29.987 
06:05	37.6	37.6	37.6	77	31.1	0	1	248	0.00	29.987 
06:10	37.5	37.5	37.5	77	31.0	0	1	248	0.00	29.987 
06:15	37.3	37.3	37.3	77	30.8	0	1	248	0.00	29.990 
06:20	37.3	37.3	37.3	77	30.8	0	2	248	0.00	29.990 
06:25	37.2	37.2	37.2	77	30.7	0	1	248	0.00	29.990 
06:30	37.2	37.2	37.2	77	30.7	0	1	248	0.00	29.990 
06:35	37.2	37.2	37.2	77	30.7	0	1	248	0.00	29.990 
06:40	37.0	37.0	37.0	77	30.5	0	1	248	0.00	29.990 
06:45	37.0	37.0	37.0	77	30.5	0	1	248	0.00	29.991 
06:50	37.0	37.0	37.0	78	30.8	0	1	248	0.00	29.991 
06:55	37.0	37.0	37.0	78	30.8	0	2	248	0.00	29.991 
07:00	37.0	37.0	37.0	78	30.8	0	2	248	0.00	29.997 
07:05	37.2	37.2	37.2	78	31.0	0	2	248	0.00	29.997 
07:10	37.5	37.5	37.5	77	31.0	1	2	248	0.00	29.997 
07:15	37.6	37.6	37.6	77	31.1	1	2	248	0.00	30.000 
07:20	37.9	37.9	37.9	76	31.0	1	3	248	0.00	30.000 
07:25	38.2	38.2	38.2	75	31.0	1	2	248	0.00	30.000 
07:30	38.5	38.5	38.5	75	31.3	1	3	248	0.00	30.003 
07:35	38.8	38.8	38.8	73	30.9	2	4	248	0.00	30.003 
07:40	39.2	39.2	39.2	72	30.9	1	4	248	0.00	30.003 
07:45	39.5	39.5	39.5	71	30.9	1	3	248	0.00	30.003 
07:50	39.9	39.9	39.9	70	30.9	1	4	248	0.00	30.003 
07:55	40.1	40.1	40.1	69	30.8	2	5	315	0.00	30.003 
08:00	40.3	40.3	40.3	68	30.6	3	6	270	0.00	30.003 
08:05	40.6	40.6	40.6	68	30.9	2	7	292	0.00	30.003 
08:10	40.9	40.9	40.9	67	30.8	2	4	292	0.00	30.003 
08:15	41.2	41.2	41.2	66	30.7	2	4	270	0.00	30.005 
08:20	41.5	41.5	41.5	66	31.0	2	5	270	0.00	30.005 
08:25	41.5	41.5	41.5	65	30.6	3	6	315	0.00	30.005 
08:30	41.8	41.8	41.8	65	30.9	2	7	315	0.00	30.002 
08:35	41.9	41.9	41.9	64	30.6	2	5	270	0.00	30.002 
08:40	42.2	42.2	42.2	63	30.5	2	5	270	0.00	30.002 
08:45	42.2	42.2	42.2	62	30.1	3	6	315	0.00	30.005 
08:50	42.6	42.6	42.6	62	30.5	2	4	270	0.00	30.005 
08:55	42.9	42.9	42.9	61	30.4	3	5	270	0.00	30.005 
09:00	42.8	42.8	42.8	60	29.9	3	7	292	0.00	30.010 
09:05	42.6	42.6	42.6	60	29.7	3	5	270	0.00	30.010 
09:10	43.1	43.1	43.1	61	30.6	2	6	270	0.00	30.010 
09:15	43.3	43.3	43.3	58	29.5	3	10	270	0.00	30.013 
09:20	43.3	43.3	43.3	58	29.5	3	5	270	0.00	30.013 
09:25	43.6	43.6	43.6	58	29.8	2	5	315	0.00	30.013 
09:30	44.2	44.2	44.2	57	29.9	2	6	315	0.00	30.018 
09:35	44.5	44.5	44.5	57	30.2	3	9	270	0.00	30.018 
09:40	44.5	44.5	44.5	55	29.3	3	10	315	0.00	30.018 
09:45	44.8	44.8	44.8	54	29.2	3	9	338	0.00	30.016 
09:50	44.6	44.6	44.6	55	29.4	2	7	270	0.00	30.016 
09:55	43.9	41.8	43.9	54	28.3	4	7	270	0.00	30.016 
10:00	43.3	43.3	43.3	55	28.2	3	6	270	0.00	30.018 
10:05	43.2	43.2	43.2	56	28.6	3	7	292	0.00	30.018 
10:10	43.2	43.2	43.2	57	29.0	3	6	270	0.00	30.018 
10:15	43.3	43.3	43.3	57	29.1	3	6	248	0.00	30.022 
10:20	43.9	43.9	43.9	57	29.7	2	7	270	0.00	30.022 
10:25	44.8	44.8	44.8	56	30.1	3	6	315	0.00	30.022 
10:30	44.5	44.5	44.5	55	29.3	3	8	315	0.00	30.024 
10:35	44.5	44.5	44.5	56	29.8	2	9	315	0.00	30.024 
10:40	44.3	42.3	44.3	54	28.7	4	8	292	0.00	30.024 
10:45	44.5	44.5	44.5	55	29.3	3	5	315	0.00	30.026 
10:50	44.6	44.6	44.6	54	29.0	2	5	270	0.00	30.026 
10:55	44.9	44.9	44.9	53	28.8	3	7	270	0.00	30.026 
11:00	44.8	44.8	44.8	50	27.3	3	7	338	0.00	30.033 
11:05	44.6	44.6	44.6	52	28.1	2	5	270	0.00	30.033 
11:10	45.5	45.5	45.5	52	28.9	3	6	270	0.00	30.033 
11:15	45.8	45.8	45.8	49	27.7	2	6	0	0.00	30.035 
11:20	45.7	45.7	45.7	49	27.6	3	9	270	0.00	30.035 
11:25	45.2	45.2	45.2	50	27.7	3	6	270	0.00	30.035 
11:30	44.9	44.9	44.9	50	27.4	3	6	270	0.00	30.044 
11:35	44.8	42.9	44.8	50	27.3	4	7	292	0.00	30.044 
11:40	44.5	44.5	44.5	52	28.0	2	6	338	0.00	30.044 
11:45	44.9	44.9	44.9	53	28.8	2	5	270	0.00	30.048 
11:50	46.0	46.0	46.0	52	29.4	2	4	338	0.00	30.048 
11:55	46.1	46.1	46.1	48	27.5	3	6	270	0.00	30.048 
12:00	45.7	45.7	45.7	49	27.6	3	7	338	0.00	30.048 
12:05	45.8	45.8	45.8	50	28.2	3	7	270	0.00	30.048 
12:10	45.4	43.6	45.4	50	27.9	4	7	270	0.00	30.048 
12:15	45.1	45.1	45.1	52	28.5	3	6	270	0.00	30.055 
12:20	45.7	45.7	45.7	51	28.6	3	6	270	0.00	30.055 
12:25	46.2	46.2	46.2	48	27.6	3	12	270	0.00	30.055 
12:30	46.0	44.2	46.0	47	26.9	4	12	270	0.00	30.055 
12:35	45.8	45.8	45.8	48	27.2	3	10	270	0.00	30.055 
12:40	45.5	45.5	45.5	48	27.0	3	6	292	0.00	30.055 
12:45	46.2	46.2	46.2	51	29.1	2	6	315	0.00	30.056 
12:50	47.3	45.8	47.3	49	29.1	4	8	270	0.00	30.056 
12:55	48.0	48.0	48.0	46	28.2	2	6	270	0.00	30.056 
13:00	47.4	45.9	47.4	45	27.1	4	10	270	0.00	30.062 
13:05	46.7	46.7	46.7	47	27.6	3	6	270	0.00	30.062 
13:10	46.5	46.5	46.5	48	27.9	3	5	292	0.00	30.062 
13:15	46.2	46.2	46.2	48	27.6	3	7	270	0.00	30.066 
13:20	46.8	46.8	46.8	48	28.2	3	7	270	0.00	30.066 
13:25	47.6	47.6	47.6	50	29.9	2	5	248	0.00	30.066 
13:30	48.6	48.6	48.6	46	28.8	2	5	270	0.00	30.062 
13:35	48.0	48.0	48.0	45	27.7	3	5	270	0.00	30.062 
13:40	47.7	47.7	47.7	46	27.9	3	6	315	0.00	30.062 
13:45	48.6	48.6	48.6	50	30.8	3	6	270	0.00	30.065 
13:50	48.8	48.8	48.8	46	28.9	2	5	270	0.00	30.065 
13:55	49.2	49.2	49.2	45	28.8	2	6	315	0.00	30.065 
14:00	48.6	48.6	48.6	43	27.1	3	11	338	0.00	30.066 
14:05	48.8	47.5	48.8	43	27.3	4	7	270	0.00	30.066 
14:10	48.3	46.9	48.3	43	26.9	4	7	270	0.00	30.066 
14:15	48.8	48.8	48.8	44	27.9	3	7	270	0.00	30.067 
14:20	48.9	48.9	48.9	43	27.4	3	7	270	0.00	30.067 
14:25	48.8	48.8	48.8	45	28.4	2	6	270	0.00	30.067 
14:30	49.4	49.4	49.4	43	27.9	3	9	270	0.00	30.067 
14:35	48.9	48.9	48.9	43	27.4	3	7	270	0.00	30.067 
14:40	49.2	49.2	49.2	44	28.2	3	9	270	0.00	30.067 
14:45	49.2	47.9	49.2	45	28.8	4	7	270	0.00	30.068 
14:50	48.8	47.5	48.8	43	27.3	4	7	270	0.00	30.068 
14:55	48.2	46.8	48.2	43	26.8	4	10	270	0.00	30.068 
15:00	48.8	47.5	48.8	44	27.9	4	7	270	0.00	30.070 
15:05	48.6	48.6	48.6	44	27.7	3	8	270	0.00	30.070 
15:10	48.6	47.3	48.6	43	27.1	4	7	270	0.00	30.070 
15:15	48.8	46.8	48.8	42	26.7	5	10	270	0.00	30.074 
15:20	48.6	48.6	48.6	45	28.2	3	9	270	0.00	30.074 
15:25	49.1	47.8	49.1	44	28.1	4	8	270	0.00	30.074 
15:30	48.9	48.9	48.9	44	28.0	2	4	270	0.00	30.072 
15:35	48.9	48.9	48.9	43	27.4	3	5	270	0.00	30.072 
15:40	49.1	47.8	49.1	42	27.0	4	7	270	0.00	30.072 
15:45	48.8	47.5	48.8	43	27.3	4	7	270	0.00	30.075 
15:50	48.3	46.9	48.3	44	27.4	4	7	270	0.00	30.075 
15:55	48.2	46.8	48.2	43	26.8	4	10	270	0.00	30.075 
16:00	48.2	48.2	48.2	44	27.3	2	6	270	0.00	30.074 
16:05	48.6	48.6	48.6	43	27.1	3	7	270	0.00	30.074 
16:10	48.6	48.6	48.6	43	27.1	3	5	270	0.00	30.074 
16:15	48.6	48.6	48.6	45	28.2	2	5	248	0.00	30.075 
16:20	48.3	48.3	48.3	43	26.9	3	6	270	0.00	30.075 
16:25	48.3	48.3	48.3	43	26.9	3	7	270	0.00	30.075 
16:30	48.3	48.3	48.3	43	26.9	3	6	270	0.00	30.079 
16:35	48.5	47.1	48.5	43	27.0	4	7	270	0.00	30.079 
16:40	48.9	48.9	48.9	44	28.0	3	9	248	0.00	30.079 
16:45	48.6	48.6	48.6	42	26.6	3	7	270	0.00	30.077 
16:50	48.9	48.9	48.9	42	26.8	3	6	315	0.00	30.077 
16:55	49.1	49.1	49.1	41	26.4	3	6	270	0.00	30.077 
17:00	48.9	48.9	48.9	43	27.4	3	5	270	0.00	30.074 
17:05	49.2	49.2	49.2	42	27.1	3	6	270	0.00	30.074 
17:10	48.8	48.8	48.8	42	26.7	3	7	270	0.00	30.074 
17:15	48.6	48.6	48.6	41	26.0	2	6	315	0.00	30.074 
17:20	48.5	48.5	48.5	42	26.5	3	5	270	0.00	30.074 
17:25	48.2	48.2	48.2	41	25.6	3	6	292	0.00	30.074 
17:30	48.5	48.5	48.5	41	25.9	2	5	248	0.00	30.077 
17:35	49.2	49.2	49.2	43	27.7	2	6	270	0.00	30.077 
17:40	49.9	49.9	49.9	40	26.6	3	7	270	0.00	30.077 
17:45	50.5	50.5	50.5	40	27.1	3	6	270	0.00	30.074 
17:50	50.4	50.4	50.4	39	26.4	3	6	270	0.00	30.074 
17:55	50.1	50.1	50.1	38	25.5	2	7	270	0.00	30.074 
18:00	49.4	49.4	49.4	39	25.5	3	6	270	0.00	30.076 
18:05	49.6	49.6	49.6	40	26.3	3	7	270	0.00	30.076 
18:10	49.6	49.6	49.6	39	25.7	3	7	270	0.00	30.076 
18:15	49.6	49.6	49.6	39	25.7	2	5	338	0.00	30.074 
18:20	49.8	49.8	49.8	38	25.2	2	6	292	0.00	30.074 
18:25	49.8	49.8	49.8	38	25.2	2	5	270	0.00	30.074 
18:30	49.6	49.6	49.6	40	26.3	2	5	292	0.00	30.072 
18:35	49.2	49.2	49.2	38	24.7	3	7	270	0.00	30.072 
18:40	49.2	49.2	49.2	38	24.7	2	5	270	0.00	30.072 
18:45	49.1	49.1	49.1	38	24.6	2	5	270	0.00	30.068 
18:50	49.4	49.4	49.4	40	26.1	2	6	270	0.00	30.068 
18:55	49.2	49.2	49.2	38	24.7	2	4	338	0.00	30.068 
19:00	49.1	49.1	49.1	39	25.2	2	5	292	0.00	30.068 
19:05	49.2	49.2	49.2	39	25.3	2	7	315	0.00	30.068 
19:10	49.1	49.1	49.1	39	25.2	2	6	0	0.00	30.068 
19:15	48.8	48.8	48.8	40	25.6	2	5	315	0.00	30.068 
19:20	48.6	48.6	48.6	40	25.4	2	6	315	0.00	30.068 
19:25	48.6	48.6	48.6	40	25.4	2	5	270	0.00	30.068 
19:30	48.6	48.6	48.6	40	25.4	2	7	270	0.00	30.067 
19:35	48.6	48.6	48.6	41	26.0	1	3	270	0.00	30.067 
19:40	48.5	48.5	48.5	40	25.3	2	5	270	0.00	30.067 
19:45	48.3	48.3	48.3	40	25.1	2	5	338	0.00	30.068 
19:50	48.3	48.3	48.3	40	25.1	1	4	315	0.00	30.068 
19:55	48.2	48.2	48.2	40	25.0	2	7	338	0.00	30.068 
20:00	48.2	48.2	48.2	41	25.6	1	4	338	0.00	30.070 
20:05	47.9	47.9	47.9	42	25.9	0	3	270	0.00	30.070 
20:10	47.6	47.6	47.6	42	25.7	0	1	270	0.00	30.070 
20:15	47.3	47.3	47.3	43	25.9	0	1	270	0.00	30.067 
20:20	47.1	47.1	47.1	41	24.6	1	5	270	0.00	30.067 
20:25	47.0	47.0	47.0	41	24.5	1	3	270	0.00	30.067 
20:30	46.8	46.8	46.8	42	24.9	0	2	270	0.00	30.068 
20:35	46.5	46.5	46.5	43	25.2	0	3	338	0.00	30.068 
20:40	46.2	46.2	46.2	44	25.5	0	2	315	0.00	30.068 
20:45	46.0	46.0	46.0	44	25.3	0	1	315	0.00	30.075 
20:50	45.8	45.8	45.8	44	25.1	0	2	315	0.00	30.075 
20:55	45.8	45.8	45.8	44	25.1	0	4	292	0.00	30.075 
21:00	45.5	45.5	45.5	45	25.4	0	2	292	0.00	30.079 
21:05	45.2	45.2	45.2	46	25.7	0	1	292	0.00	30.079 
21:10	44.9	44.9	44.9	46	25.4	0	1	292	0.00	30.079 
21:15	44.6	44.6	44.6	46	25.1	0	1	292	0.00	30.081 
21:20	44.5	44.5	44.5	47	25.5	0	1	292	0.00	30.081 
21:25	44.2	44.2	44.2	48	25.8	0	0	---	0.00	30.081 
21:30	43.9	43.9	43.9	49	26.0	0	0	---	0.00	30.091 
21:35	43.6	43.6	43.6	49	25.7	0	0	---	0.00	30.091 
21:40	43.3	43.3	43.3	50	25.9	0	0	---	0.00	30.091 
21:45	42.9	42.9	42.9	51	26.0	0	0	---	0.00	30.099 
21:50	42.5	42.5	42.5	52	26.1	0	0	---	0.00	30.099 
21:55	42.2	42.2	42.2	53	26.3	0	0	---	0.00	30.099 
22:00	41.9	41.9	41.9	54	26.5	0	0	---	0.00	30.111 
22:05	41.8	41.8	41.8	54	26.4	0	0	---	0.00	30.111 
22:10	41.5	41.5	41.5	54	26.1	0	0	---	0.00	30.111 
22:15	41.3	41.3	41.3	55	26.4	0	0	---	0.00	30.116 
22:20	41.2	41.2	41.2	56	26.7	0	0	---	0.00	30.116 
22:25	40.9	40.9	40.9	56	26.4	0	0	---	0.00	30.116 
22:30	40.8	40.8	40.8	57	26.8	0	0	---	0.00	30.120 
22:35	40.5	40.5	40.5	58	26.9	0	0	---	0.00	30.120 
22:40	40.2	40.2	40.2	58	26.6	0	0	---	0.00	30.120 
22:45	39.9	39.9	39.9	59	26.7	0	0	---	0.00	30.128 
22:50	39.8	39.8	39.8	60	27.1	0	0	---	0.00	30.128 
22:55	39.5	39.5	39.5	60	26.8	0	0	---	0.00	30.128 
23:00	39.2	39.2	39.2	61	26.9	0	0	---	0.00	30.128 
23:05	38.9	38.9	38.9	62	27.0	0	0	---	0.00	30.128 
23:10	38.8	38.8	38.8	63	27.3	0	0	---	0.00	30.128 
23:15	38.6	38.6	38.6	64	27.5	0	0	---	0.00	30.129 
23:20	38.5	38.5	38.5	65	27.8	0	0	---	0.00	30.129 
23:25	38.5	38.5	38.5	65	27.8	0	0	---	0.00	30.129 
23:30	38.5	38.5	38.5	66	28.1	0	0	---	0.00	30.128 
23:35	38.3	38.3	38.3	67	28.3	0	0	---	0.00	30.128 
23:40	38.3	38.3	38.3	67	28.3	0	0	---	0.00	30.128 
23:45	38.3	38.3	38.3	67	28.3	0	0	---	0.00	30.123 
23:50	38.3	38.3	38.3	69	29.0	0	0	---	0.00	30.123 
23:55	38.2	38.2	38.2	69	28.9	0	0	---	0.00	30.123 

CoCoRaHS
IN-AL-39
A2 Web Hosting
Creative Commons License
GoDaddy
search engine by freefind advanced

loaded 2018-11-20 06:18:41 • last modified 2010-11-18 10:43:29
Privacy PolicyDisclaimer
• wx.awcolley.com is powered by PmWiki v.2002016 •
• all content (unless otherwise noted) © 2018 A W Colley